sensor_id;sensor_type;location;lat;lon;timestamp;P1;durP1;ratioP1;P2;durP2;ratioP2
12356;SDS011;6243;51.244;6.774;2024-01-16T00:02:19;6.17;;;4.20;;
12356;SDS011;6243;51.244;6.774;2024-01-16T00:04:45;5.40;;;4.20;;
12356;SDS011;6243;51.244;6.774;2024-01-16T00:07:10;7.13;;;3.87;;
12356;SDS011;6243;51.244;6.774;2024-01-16T00:09:36;5.83;;;3.70;;
12356;SDS011;6243;51.244;6.774;2024-01-16T00:12:03;5.30;;;3.93;;
12356;SDS011;6243;51.244;6.774;2024-01-16T00:14:29;6.80;;;3.90;;
12356;SDS011;6243;51.244;6.774;2024-01-16T00:16:54;5.43;;;4.00;;
12356;SDS011;6243;51.244;6.774;2024-01-16T00:19:20;6.10;;;4.10;;
12356;SDS011;6243;51.244;6.774;2024-01-16T00:21:45;5.23;;;4.47;;
12356;SDS011;6243;51.244;6.774;2024-01-16T00:24:11;6.77;;;4.20;;
12356;SDS011;6243;51.244;6.774;2024-01-16T00:26:36;6.00;;;4.53;;
12356;SDS011;6243;51.244;6.774;2024-01-16T00:29:03;5.43;;;4.30;;
12356;SDS011;6243;51.244;6.774;2024-01-16T00:31:29;4.73;;;3.87;;
12356;SDS011;6243;51.244;6.774;2024-01-16T00:33:54;5.60;;;4.90;;
12356;SDS011;6243;51.244;6.774;2024-01-16T00:36:20;7.67;;;5.00;;
12356;SDS011;6243;51.244;6.774;2024-01-16T00:38:45;5.87;;;5.27;;
12356;SDS011;6243;51.244;6.774;2024-01-16T00:41:11;5.70;;;5.10;;
12356;SDS011;6243;51.244;6.774;2024-01-16T00:43:37;5.70;;;5.13;;
12356;SDS011;6243;51.244;6.774;2024-01-16T00:46:04;7.87;;;5.07;;
12356;SDS011;6243;51.244;6.774;2024-01-16T00:48:29;8.67;;;5.60;;
12356;SDS011;6243;51.244;6.774;2024-01-16T00:50:55;8.13;;;5.53;;
12356;SDS011;6243;51.244;6.774;2024-01-16T00:53:20;7.77;;;5.43;;
12356;SDS011;6243;51.244;6.774;2024-01-16T00:55:46;6.77;;;5.37;;
12356;SDS011;6243;51.244;6.774;2024-01-16T00:58:11;6.83;;;5.40;;
12356;SDS011;6243;51.244;6.774;2024-01-16T01:00:37;6.70;;;5.73;;
12356;SDS011;6243;51.244;6.774;2024-01-16T01:03:04;7.07;;;6.10;;
12356;SDS011;6243;51.244;6.774;2024-01-16T01:05:29;7.20;;;6.33;;
12356;SDS011;6243;51.244;6.774;2024-01-16T01:07:55;9.63;;;6.83;;
12356;SDS011;6243;51.244;6.774;2024-01-16T01:10:21;9.37;;;7.30;;
12356;SDS011;6243;51.244;6.774;2024-01-16T01:12:46;8.60;;;7.10;;
12356;SDS011;6243;51.244;6.774;2024-01-16T01:15:12;9.87;;;7.90;;
12356;SDS011;6243;51.244;6.774;2024-01-16T01:17:37;12.20;;;8.90;;
12356;SDS011;6243;51.244;6.774;2024-01-16T01:20:05;11.60;;;8.00;;
12356;SDS011;6243;51.244;6.774;2024-01-16T01:22:31;11.93;;;8.17;;
12356;SDS011;6243;51.244;6.774;2024-01-16T01:24:57;11.07;;;9.10;;
12356;SDS011;6243;51.244;6.774;2024-01-16T01:27:22;11.60;;;9.07;;
12356;SDS011;6243;51.244;6.774;2024-01-16T01:29:48;10.73;;;8.27;;
12356;SDS011;6243;51.244;6.774;2024-01-16T01:32:13;10.17;;;8.80;;
12356;SDS011;6243;51.244;6.774;2024-01-16T01:34:41;11.77;;;9.83;;
12356;SDS011;6243;51.244;6.774;2024-01-16T01:37:08;11.37;;;8.57;;
12356;SDS011;6243;51.244;6.774;2024-01-16T01:39:33;9.93;;;8.67;;
12356;SDS011;6243;51.244;6.774;2024-01-16T01:41:59;13.70;;;8.37;;
12356;SDS011;6243;51.244;6.774;2024-01-16T01:44:24;11.17;;;8.70;;
12356;SDS011;6243;51.244;6.774;2024-01-16T01:46:50;10.63;;;7.83;;
12356;SDS011;6243;51.244;6.774;2024-01-16T01:49:16;9.47;;;8.23;;
12356;SDS011;6243;51.244;6.774;2024-01-16T01:51:41;10.03;;;8.00;;
12356;SDS011;6243;51.244;6.774;2024-01-16T01:54:09;9.50;;;7.40;;
12356;SDS011;6243;51.244;6.774;2024-01-16T01:56:35;8.13;;;7.20;;
12356;SDS011;6243;51.244;6.774;2024-01-16T01:59:01;8.53;;;7.20;;
12356;SDS011;6243;51.244;6.774;2024-01-16T02:01:27;7.97;;;6.80;;
12356;SDS011;6243;51.244;6.774;2024-01-16T02:04:02;10.33;;;7.70;;
12356;SDS011;6243;51.244;6.774;2024-01-16T02:06:29;8.63;;;7.40;;
12356;SDS011;6243;51.244;6.774;2024-01-16T02:08:54;8.77;;;7.57;;
12356;SDS011;6243;51.244;6.774;2024-01-16T02:11:21;8.33;;;7.50;;
12356;SDS011;6243;51.244;6.774;2024-01-16T02:13:47;9.57;;;8.37;;
12356;SDS011;6243;51.244;6.774;2024-01-16T02:16:18;9.57;;;7.63;;
12356;SDS011;6243;51.244;6.774;2024-01-16T02:18:44;9.40;;;8.50;;
12356;SDS011;6243;51.244;6.774;2024-01-16T02:21:10;11.97;;;9.00;;
12356;SDS011;6243;51.244;6.774;2024-01-16T02:23:39;10.40;;;8.67;;
12356;SDS011;6243;51.244;6.774;2024-01-16T02:26:04;12.00;;;9.00;;
12356;SDS011;6243;51.244;6.774;2024-01-16T02:28:30;10.33;;;8.63;;
12356;SDS011;6243;51.244;6.774;2024-01-16T02:30:55;15.53;;;10.27;;
12356;SDS011;6243;51.244;6.774;2024-01-16T02:33:21;15.43;;;9.70;;
12356;SDS011;6243;51.244;6.774;2024-01-16T02:35:47;11.17;;;9.10;;
12356;SDS011;6243;51.244;6.774;2024-01-16T02:38:12;11.47;;;8.63;;
12356;SDS011;6243;51.244;6.774;2024-01-16T02:40:39;11.33;;;9.20;;
12356;SDS011;6243;51.244;6.774;2024-01-16T02:43:05;12.80;;;9.67;;
12356;SDS011;6243;51.244;6.774;2024-01-16T02:45:30;11.67;;;9.07;;
12356;SDS011;6243;51.244;6.774;2024-01-16T02:47:56;12.57;;;9.53;;
12356;SDS011;6243;51.244;6.774;2024-01-16T02:50:21;12.70;;;9.63;;
12356;SDS011;6243;51.244;6.774;2024-01-16T02:52:47;11.30;;;9.33;;
12356;SDS011;6243;51.244;6.774;2024-01-16T02:55:12;13.00;;;9.47;;
12356;SDS011;6243;51.244;6.774;2024-01-16T02:57:39;12.23;;;9.57;;
12356;SDS011;6243;51.244;6.774;2024-01-16T03:00:05;13.83;;;9.47;;
12356;SDS011;6243;51.244;6.774;2024-01-16T03:02:32;10.50;;;8.70;;
12356;SDS011;6243;51.244;6.774;2024-01-16T03:04:57;13.47;;;9.87;;
12356;SDS011;6243;51.244;6.774;2024-01-16T03:07:23;12.00;;;9.40;;
12356;SDS011;6243;51.244;6.774;2024-01-16T03:09:48;11.30;;;9.00;;
12356;SDS011;6243;51.244;6.774;2024-01-16T03:12:14;12.10;;;8.73;;
12356;SDS011;6243;51.244;6.774;2024-01-16T03:14:41;12.10;;;9.40;;
12356;SDS011;6243;51.244;6.774;2024-01-16T03:17:06;11.13;;;8.73;;
12356;SDS011;6243;51.244;6.774;2024-01-16T03:19:32;11.47;;;9.30;;
12356;SDS011;6243;51.244;6.774;2024-01-16T03:21:58;11.57;;;8.80;;
12356;SDS011;6243;51.244;6.774;2024-01-16T03:24:23;9.23;;;7.87;;
12356;SDS011;6243;51.244;6.774;2024-01-16T03:26:49;9.67;;;8.50;;
12356;SDS011;6243;51.244;6.774;2024-01-16T03:29:14;12.33;;;8.93;;
12356;SDS011;6243;51.244;6.774;2024-01-16T03:31:41;12.73;;;8.73;;
12356;SDS011;6243;51.244;6.774;2024-01-16T03:34:07;10.17;;;7.97;;
12356;SDS011;6243;51.244;6.774;2024-01-16T03:36:32;9.37;;;7.70;;
12356;SDS011;6243;51.244;6.774;2024-01-16T03:38:58;11.33;;;7.57;;
12356;SDS011;6243;51.244;6.774;2024-01-16T03:41:24;10.43;;;7.80;;
12356;SDS011;6243;51.244;6.774;2024-01-16T03:43:49;12.17;;;7.83;;
12356;SDS011;6243;51.244;6.774;2024-01-16T03:46:15;10.03;;;7.90;;
12356;SDS011;6243;51.244;6.774;2024-01-16T03:48:42;9.83;;;7.27;;
12356;SDS011;6243;51.244;6.774;2024-01-16T03:51:08;10.17;;;6.93;;
12356;SDS011;6243;51.244;6.774;2024-01-16T03:53:34;11.53;;;7.20;;
12356;SDS011;6243;51.244;6.774;2024-01-16T03:55:59;8.10;;;6.33;;
12356;SDS011;6243;51.244;6.774;2024-01-16T03:58:25;6.57;;;5.93;;
12356;SDS011;6243;51.244;6.774;2024-01-16T04:00:51;7.70;;;6.40;;
12356;SDS011;6243;51.244;6.774;2024-01-16T04:03:16;8.43;;;6.30;;
12356;SDS011;6243;51.244;6.774;2024-01-16T04:05:43;9.93;;;6.53;;
12356;SDS011;6243;51.244;6.774;2024-01-16T04:08:09;7.83;;;5.83;;
12356;SDS011;6243;51.244;6.774;2024-01-16T04:10:34;7.87;;;6.17;;
12356;SDS011;6243;51.244;6.774;2024-01-16T04:13:00;7.37;;;5.70;;
12356;SDS011;6243;51.244;6.774;2024-01-16T04:15:25;7.00;;;5.40;;
12356;SDS011;6243;51.244;6.774;2024-01-16T04:17:51;7.40;;;5.47;;
12356;SDS011;6243;51.244;6.774;2024-01-16T04:20:16;8.20;;;5.23;;
12356;SDS011;6243;51.244;6.774;2024-01-16T04:22:43;9.60;;;5.20;;
12356;SDS011;6243;51.244;6.774;2024-01-16T04:25:09;6.40;;;5.10;;
12356;SDS011;6243;51.244;6.774;2024-01-16T04:27:34;7.33;;;4.93;;
12356;SDS011;6243;51.244;6.774;2024-01-16T04:30:00;6.57;;;5.20;;
12356;SDS011;6243;51.244;6.774;2024-01-16T04:32:25;6.03;;;5.43;;
12356;SDS011;6243;51.244;6.774;2024-01-16T04:34:51;7.83;;;5.10;;
12356;SDS011;6243;51.244;6.774;2024-01-16T04:37:16;7.77;;;5.60;;
12356;SDS011;6243;51.244;6.774;2024-01-16T04:39:43;7.90;;;5.37;;
12356;SDS011;6243;51.244;6.774;2024-01-16T04:42:08;6.30;;;5.10;;
12356;SDS011;6243;51.244;6.774;2024-01-16T04:44:34;5.50;;;4.97;;
12356;SDS011;6243;51.244;6.774;2024-01-16T04:46:59;6.80;;;5.30;;
12356;SDS011;6243;51.244;6.774;2024-01-16T04:49:25;8.43;;;5.70;;
12356;SDS011;6243;51.244;6.774;2024-01-16T04:51:50;6.57;;;5.80;;
12356;SDS011;6243;51.244;6.774;2024-01-16T04:54:16;9.03;;;6.00;;
12356;SDS011;6243;51.244;6.774;2024-01-16T04:56:43;9.13;;;6.17;;
12356;SDS011;6243;51.244;6.774;2024-01-16T04:59:08;9.03;;;6.30;;
12356;SDS011;6243;51.244;6.774;2024-01-16T05:01:34;12.00;;;6.90;;
12356;SDS011;6243;51.244;6.774;2024-01-16T05:03:59;10.43;;;6.00;;
12356;SDS011;6243;51.244;6.774;2024-01-16T05:06:25;12.23;;;7.10;;
12356;SDS011;6243;51.244;6.774;2024-01-16T05:08:50;10.57;;;7.50;;
12356;SDS011;6243;51.244;6.774;2024-01-16T05:11:15;7.77;;;6.97;;
12356;SDS011;6243;51.244;6.774;2024-01-16T05:13:42;8.13;;;6.40;;
12356;SDS011;6243;51.244;6.774;2024-01-16T05:16:08;7.73;;;6.90;;
12356;SDS011;6243;51.244;6.774;2024-01-16T05:18:34;10.07;;;6.43;;
12356;SDS011;6243;51.244;6.774;2024-01-16T05:20:59;9.33;;;6.50;;
12356;SDS011;6243;51.244;6.774;2024-01-16T05:23:25;10.20;;;6.33;;
12356;SDS011;6243;51.244;6.774;2024-01-16T05:25:50;10.13;;;6.97;;
12356;SDS011;6243;51.244;6.774;2024-01-16T05:28:16;12.70;;;7.23;;
12356;SDS011;6243;51.244;6.774;2024-01-16T05:30:43;10.33;;;6.40;;
12356;SDS011;6243;51.244;6.774;2024-01-16T05:33:08;11.50;;;6.43;;
12356;SDS011;6243;51.244;6.774;2024-01-16T05:35:34;13.50;;;6.83;;
12356;SDS011;6243;51.244;6.774;2024-01-16T05:37:59;11.13;;;6.37;;
12356;SDS011;6243;51.244;6.774;2024-01-16T05:40:25;7.30;;;5.83;;
12356;SDS011;6243;51.244;6.774;2024-01-16T05:42:50;8.00;;;5.70;;
12356;SDS011;6243;51.244;6.774;2024-01-16T05:45:16;10.27;;;6.00;;
12356;SDS011;6243;51.244;6.774;2024-01-16T05:47:43;10.27;;;5.80;;
12356;SDS011;6243;51.244;6.774;2024-01-16T05:50:09;9.63;;;5.73;;
12356;SDS011;6243;51.244;6.774;2024-01-16T05:52:34;9.77;;;5.27;;
12356;SDS011;6243;51.244;6.774;2024-01-16T05:55:00;8.47;;;5.50;;
12356;SDS011;6243;51.244;6.774;2024-01-16T05:57:26;10.40;;;4.57;;
12356;SDS011;6243;51.244;6.774;2024-01-16T05:59:51;7.50;;;5.27;;
12356;SDS011;6243;51.244;6.774;2024-01-16T06:02:17;8.03;;;5.27;;
12356;SDS011;6243;51.244;6.774;2024-01-16T06:04:44;7.77;;;4.93;;
12356;SDS011;6243;51.244;6.774;2024-01-16T06:07:09;8.80;;;4.70;;
12356;SDS011;6243;51.244;6.774;2024-01-16T06:09:37;8.47;;;5.00;;
12356;SDS011;6243;51.244;6.774;2024-01-16T06:12:03;10.60;;;4.50;;
12356;SDS011;6243;51.244;6.774;2024-01-16T06:14:29;7.97;;;5.17;;
12356;SDS011;6243;51.244;6.774;2024-01-16T06:16:55;10.77;;;5.70;;
12356;SDS011;6243;51.244;6.774;2024-01-16T06:19:20;10.17;;;5.07;;
12356;SDS011;6243;51.244;6.774;2024-01-16T06:21:47;9.43;;;5.27;;
12356;SDS011;6243;51.244;6.774;2024-01-16T06:24:13;5.47;;;4.20;;
12356;SDS011;6243;51.244;6.774;2024-01-16T06:26:38;7.53;;;4.73;;
12356;SDS011;6243;51.244;6.774;2024-01-16T06:29:04;7.53;;;4.00;;
12356;SDS011;6243;51.244;6.774;2024-01-16T06:31:29;9.20;;;5.40;;
12356;SDS011;6243;51.244;6.774;2024-01-16T06:33:55;9.97;;;4.97;;
12356;SDS011;6243;51.244;6.774;2024-01-16T06:36:20;10.13;;;5.27;;
12356;SDS011;6243;51.244;6.774;2024-01-16T06:38:47;11.27;;;5.00;;
12356;SDS011;6243;51.244;6.774;2024-01-16T06:41:13;8.03;;;4.63;;
12356;SDS011;6243;51.244;6.774;2024-01-16T06:43:38;9.27;;;4.43;;
12356;SDS011;6243;51.244;6.774;2024-01-16T06:46:04;9.83;;;4.03;;
12356;SDS011;6243;51.244;6.774;2024-01-16T06:48:29;9.40;;;4.53;;
12356;SDS011;6243;51.244;6.774;2024-01-16T06:50:55;7.17;;;3.83;;
12356;SDS011;6243;51.244;6.774;2024-01-16T06:53:20;8.10;;;3.47;;
12356;SDS011;6243;51.244;6.774;2024-01-16T06:55:47;8.87;;;4.07;;
12356;SDS011;6243;51.244;6.774;2024-01-16T06:58:12;6.60;;;4.10;;
12356;SDS011;6243;51.244;6.774;2024-01-16T07:00:38;6.07;;;3.70;;
12356;SDS011;6243;51.244;6.774;2024-01-16T07:03:03;4.97;;;3.50;;
12356;SDS011;6243;51.244;6.774;2024-01-16T07:05:29;9.43;;;3.70;;
12356;SDS011;6243;51.244;6.774;2024-01-16T07:07:54;7.63;;;3.87;;
12356;SDS011;6243;51.244;6.774;2024-01-16T07:10:20;11.03;;;3.97;;
12356;SDS011;6243;51.244;6.774;2024-01-16T07:12:47;9.83;;;3.73;;
12356;SDS011;6243;51.244;6.774;2024-01-16T07:15:13;5.97;;;3.20;;
12356;SDS011;6243;51.244;6.774;2024-01-16T07:17:38;5.83;;;2.80;;
12356;SDS011;6243;51.244;6.774;2024-01-16T07:20:04;8.93;;;3.53;;
12356;SDS011;6243;51.244;6.774;2024-01-16T07:22:30;6.30;;;3.30;;
12356;SDS011;6243;51.244;6.774;2024-01-16T07:24:55;7.97;;;3.80;;
12356;SDS011;6243;51.244;6.774;2024-01-16T07:27:21;6.20;;;2.57;;
12356;SDS011;6243;51.244;6.774;2024-01-16T07:29:48;7.93;;;3.00;;
12356;SDS011;6243;51.244;6.774;2024-01-16T07:32:13;7.77;;;3.10;;
12356;SDS011;6243;51.244;6.774;2024-01-16T07:34:39;7.37;;;3.80;;
12356;SDS011;6243;51.244;6.774;2024-01-16T07:37:04;7.30;;;3.00;;
12356;SDS011;6243;51.244;6.774;2024-01-16T07:39:30;5.37;;;3.07;;
12356;SDS011;6243;51.244;6.774;2024-01-16T07:41:55;5.40;;;2.90;;
12356;SDS011;6243;51.244;6.774;2024-01-16T07:44:21;4.67;;;2.87;;
12356;SDS011;6243;51.244;6.774;2024-01-16T07:46:48;9.10;;;3.23;;
12356;SDS011;6243;51.244;6.774;2024-01-16T07:49:13;6.10;;;3.07;;
12356;SDS011;6243;51.244;6.774;2024-01-16T07:51:39;8.10;;;3.03;;
12356;SDS011;6243;51.244;6.774;2024-01-16T07:54:05;6.50;;;2.87;;
12356;SDS011;6243;51.244;6.774;2024-01-16T07:56:31;7.43;;;2.93;;
12356;SDS011;6243;51.244;6.774;2024-01-16T07:58:57;4.10;;;2.87;;
12356;SDS011;6243;51.244;6.774;2024-01-16T08:01:22;6.90;;;3.47;;
12356;SDS011;6243;51.244;6.774;2024-01-16T08:03:49;4.57;;;3.10;;
12356;SDS011;6243;51.244;6.774;2024-01-16T08:06:15;7.03;;;2.83;;
12356;SDS011;6243;51.244;6.774;2024-01-16T08:08:40;5.33;;;2.90;;
12356;SDS011;6243;51.244;6.774;2024-01-16T08:11:06;5.10;;;2.70;;
12356;SDS011;6243;51.244;6.774;2024-01-16T08:13:31;6.50;;;3.13;;
12356;SDS011;6243;51.244;6.774;2024-01-16T08:15:57;7.03;;;2.83;;
12356;SDS011;6243;51.244;6.774;2024-01-16T08:18:23;9.27;;;3.43;;
12356;SDS011;6243;51.244;6.774;2024-01-16T08:20:50;7.40;;;3.33;;
12356;SDS011;6243;51.244;6.774;2024-01-16T08:23:15;7.73;;;3.40;;
12356;SDS011;6243;51.244;6.774;2024-01-16T08:25:41;7.67;;;3.60;;
12356;SDS011;6243;51.244;6.774;2024-01-16T08:28:06;7.63;;;3.33;;
12356;SDS011;6243;51.244;6.774;2024-01-16T08:30:32;8.37;;;3.30;;
12356;SDS011;6243;51.244;6.774;2024-01-16T08:32:57;8.33;;;3.60;;
12356;SDS011;6243;51.244;6.774;2024-01-16T08:35:23;8.57;;;3.77;;
12356;SDS011;6243;51.244;6.774;2024-01-16T08:37:50;7.10;;;3.43;;
12356;SDS011;6243;51.244;6.774;2024-01-16T08:40:15;7.97;;;3.63;;
12356;SDS011;6243;51.244;6.774;2024-01-16T08:42:41;7.80;;;4.03;;
12356;SDS011;6243;51.244;6.774;2024-01-16T08:45:07;10.27;;;3.47;;
12356;SDS011;6243;51.244;6.774;2024-01-16T08:47:33;6.67;;;3.50;;
12356;SDS011;6243;51.244;6.774;2024-01-16T08:49:58;8.40;;;3.47;;
12356;SDS011;6243;51.244;6.774;2024-01-16T08:52:24;10.07;;;3.40;;
12356;SDS011;6243;51.244;6.774;2024-01-16T08:54:51;6.90;;;3.33;;
12356;SDS011;6243;51.244;6.774;2024-01-16T08:57:16;7.40;;;3.07;;
12356;SDS011;6243;51.244;6.774;2024-01-16T08:59:42;7.43;;;3.40;;
12356;SDS011;6243;51.244;6.774;2024-01-16T09:02:07;4.70;;;3.07;;
12356;SDS011;6243;51.244;6.774;2024-01-16T09:04:33;8.33;;;4.20;;
12356;SDS011;6243;51.244;6.774;2024-01-16T09:06:58;5.60;;;3.30;;
12356;SDS011;6243;51.244;6.774;2024-01-16T09:09:24;5.53;;;4.07;;
12356;SDS011;6243;51.244;6.774;2024-01-16T09:11:51;6.30;;;3.63;;
12356;SDS011;6243;51.244;6.774;2024-01-16T09:14:16;9.17;;;3.30;;
12356;SDS011;6243;51.244;6.774;2024-01-16T09:16:42;5.97;;;2.80;;
12356;SDS011;6243;51.244;6.774;2024-01-16T09:19:07;7.73;;;3.53;;
12356;SDS011;6243;51.244;6.774;2024-01-16T09:21:33;6.00;;;3.43;;
12356;SDS011;6243;51.244;6.774;2024-01-16T09:23:59;8.03;;;3.77;;
12356;SDS011;6243;51.244;6.774;2024-01-16T09:26:25;6.20;;;3.50;;
12356;SDS011;6243;51.244;6.774;2024-01-16T09:28:52;9.63;;;3.70;;
12356;SDS011;6243;51.244;6.774;2024-01-16T09:31:17;8.37;;;3.80;;
12356;SDS011;6243;51.244;6.774;2024-01-16T09:33:43;5.67;;;3.60;;
12356;SDS011;6243;51.244;6.774;2024-01-16T09:36:08;5.90;;;3.73;;
12356;SDS011;6243;51.244;6.774;2024-01-16T09:38:34;8.60;;;3.60;;
12356;SDS011;6243;51.244;6.774;2024-01-16T09:40:59;9.77;;;3.57;;
12356;SDS011;6243;51.244;6.774;2024-01-16T09:43:26;9.67;;;3.97;;
12356;SDS011;6243;51.244;6.774;2024-01-16T09:45:53;7.13;;;3.47;;
12356;SDS011;6243;51.244;6.774;2024-01-16T09:48:20;9.23;;;3.83;;
12356;SDS011;6243;51.244;6.774;2024-01-16T09:50:46;7.50;;;3.90;;
12356;SDS011;6243;51.244;6.774;2024-01-16T09:53:11;10.40;;;3.87;;
12356;SDS011;6243;51.244;6.774;2024-01-16T09:55:37;7.07;;;3.33;;
12356;SDS011;6243;51.244;6.774;2024-01-16T09:58:03;7.03;;;3.40;;
12356;SDS011;6243;51.244;6.774;2024-01-16T10:00:31;7.17;;;4.07;;
12356;SDS011;6243;51.244;6.774;2024-01-16T10:02:59;10.23;;;3.50;;
12356;SDS011;6243;51.244;6.774;2024-01-16T10:05:25;9.63;;;4.10;;
12356;SDS011;6243;51.244;6.774;2024-01-16T10:07:50;7.53;;;3.73;;
12356;SDS011;6243;51.244;6.774;2024-01-16T10:10:17;7.33;;;3.90;;
12356;SDS011;6243;51.244;6.774;2024-01-16T10:12:42;7.50;;;3.57;;
12356;SDS011;6243;51.244;6.774;2024-01-16T10:15:09;8.63;;;4.03;;
12356;SDS011;6243;51.244;6.774;2024-01-16T10:17:37;6.33;;;3.90;;
12356;SDS011;6243;51.244;6.774;2024-01-16T10:20:06;6.53;;;3.97;;
12356;SDS011;6243;51.244;6.774;2024-01-16T10:22:33;7.60;;;3.07;;
12356;SDS011;6243;51.244;6.774;2024-01-16T10:25:05;8.37;;;4.00;;
12356;SDS011;6243;51.244;6.774;2024-01-16T10:27:31;9.37;;;4.17;;
12356;SDS011;6243;51.244;6.774;2024-01-16T10:29:57;8.67;;;4.30;;
12356;SDS011;6243;51.244;6.774;2024-01-16T10:32:26;9.03;;;4.23;;
12356;SDS011;6243;51.244;6.774;2024-01-16T10:35:00;11.63;;;4.13;;
12356;SDS011;6243;51.244;6.774;2024-01-16T10:37:28;6.70;;;3.33;;
12356;SDS011;6243;51.244;6.774;2024-01-16T10:39:53;7.37;;;3.70;;
12356;SDS011;6243;51.244;6.774;2024-01-16T10:42:19;8.03;;;4.00;;
12356;SDS011;6243;51.244;6.774;2024-01-16T10:44:52;7.17;;;3.53;;
12356;SDS011;6243;51.244;6.774;2024-01-16T10:47:18;7.50;;;3.67;;
12356;SDS011;6243;51.244;6.774;2024-01-16T10:49:43;9.73;;;4.00;;
12356;SDS011;6243;51.244;6.774;2024-01-16T10:52:09;7.37;;;3.80;;
12356;SDS011;6243;51.244;6.774;2024-01-16T10:54:36;6.37;;;3.60;;
12356;SDS011;6243;51.244;6.774;2024-01-16T10:57:06;8.27;;;3.90;;
12356;SDS011;6243;51.244;6.774;2024-01-16T10:59:32;7.07;;;3.77;;
12356;SDS011;6243;51.244;6.774;2024-01-16T11:02:04;7.47;;;4.03;;
12356;SDS011;6243;51.244;6.774;2024-01-16T11:04:35;8.07;;;3.47;;
12356;SDS011;6243;51.244;6.774;2024-01-16T11:07:03;6.50;;;3.83;;
12356;SDS011;6243;51.244;6.774;2024-01-16T11:09:29;7.70;;;4.10;;
12356;SDS011;6243;51.244;6.774;2024-01-16T11:11:56;7.17;;;3.93;;
12356;SDS011;6243;51.244;6.774;2024-01-16T11:14:22;10.37;;;3.80;;
12356;SDS011;6243;51.244;6.774;2024-01-16T11:16:50;6.20;;;3.50;;
12356;SDS011;6243;51.244;6.774;2024-01-16T11:19:16;6.80;;;3.57;;
12356;SDS011;6243;51.244;6.774;2024-01-16T11:21:43;8.87;;;4.10;;
12356;SDS011;6243;51.244;6.774;2024-01-16T11:24:09;6.60;;;3.60;;
12356;SDS011;6243;51.244;6.774;2024-01-16T11:26:34;5.33;;;3.63;;
12356;SDS011;6243;51.244;6.774;2024-01-16T11:32:01;9.83;;;3.60;;
12356;SDS011;6243;51.244;6.774;2024-01-16T11:37:23;6.87;;;4.07;;
12356;SDS011;6243;51.244;6.774;2024-01-16T11:39:54;4.90;;;3.57;;
12356;SDS011;6243;51.244;6.774;2024-01-16T11:42:34;8.97;;;4.50;;
12356;SDS011;6243;51.244;6.774;2024-01-16T11:45:00;8.63;;;3.40;;
12356;SDS011;6243;51.244;6.774;2024-01-16T11:47:26;8.80;;;3.63;;
12356;SDS011;6243;51.244;6.774;2024-01-16T11:50:08;6.83;;;3.80;;
12356;SDS011;6243;51.244;6.774;2024-01-16T11:52:41;6.97;;;3.50;;
12356;SDS011;6243;51.244;6.774;2024-01-16T11:57:53;7.30;;;3.50;;
12356;SDS011;6243;51.244;6.774;2024-01-16T12:00:32;6.67;;;3.47;;
12356;SDS011;6243;51.244;6.774;2024-01-16T12:03:00;10.80;;;3.67;;
12356;SDS011;6243;51.244;6.774;2024-01-16T12:05:27;5.40;;;3.40;;
12356;SDS011;6243;51.244;6.774;2024-01-16T12:07:53;9.53;;;3.73;;
12356;SDS011;6243;51.244;6.774;2024-01-16T12:10:19;7.57;;;4.00;;
12356;SDS011;6243;51.244;6.774;2024-01-16T12:12:45;6.67;;;3.63;;
12356;SDS011;6243;51.244;6.774;2024-01-16T12:15:15;7.53;;;3.63;;
12356;SDS011;6243;51.244;6.774;2024-01-16T12:17:52;6.83;;;4.00;;
12356;SDS011;6243;51.244;6.774;2024-01-16T12:20:20;6.60;;;3.70;;
12356;SDS011;6243;51.244;6.774;2024-01-16T12:22:52;8.10;;;3.70;;
12356;SDS011;6243;51.244;6.774;2024-01-16T12:25:19;6.37;;;3.47;;
12356;SDS011;6243;51.244;6.774;2024-01-16T12:27:45;7.60;;;3.40;;
12356;SDS011;6243;51.244;6.774;2024-01-16T12:30:11;8.03;;;3.70;;
12356;SDS011;6243;51.244;6.774;2024-01-16T12:32:37;4.70;;;3.60;;
12356;SDS011;6243;51.244;6.774;2024-01-16T12:35:03;7.67;;;3.43;;
12356;SDS011;6243;51.244;6.774;2024-01-16T12:37:30;7.53;;;3.97;;
12356;SDS011;6243;51.244;6.774;2024-01-16T12:39:56;6.93;;;3.60;;
12356;SDS011;6243;51.244;6.774;2024-01-16T12:42:21;9.70;;;4.67;;
12356;SDS011;6243;51.244;6.774;2024-01-16T12:44:47;6.97;;;3.90;;
12356;SDS011;6243;51.244;6.774;2024-01-16T12:47:14;6.70;;;4.07;;
12356;SDS011;6243;51.244;6.774;2024-01-16T12:49:40;7.40;;;3.60;;
12356;SDS011;6243;51.244;6.774;2024-01-16T12:52:15;6.70;;;3.70;;
12356;SDS011;6243;51.244;6.774;2024-01-16T12:54:44;7.47;;;3.60;;
12356;SDS011;6243;51.244;6.774;2024-01-16T12:57:09;10.53;;;3.40;;
12356;SDS011;6243;51.244;6.774;2024-01-16T12:59:35;7.27;;;3.53;;
12356;SDS011;6243;51.244;6.774;2024-01-16T13:02:00;8.00;;;3.67;;
12356;SDS011;6243;51.244;6.774;2024-01-16T13:04:26;9.47;;;3.77;;
12356;SDS011;6243;51.244;6.774;2024-01-16T13:07:00;7.73;;;4.00;;
12356;SDS011;6243;51.244;6.774;2024-01-16T13:09:26;6.10;;;3.80;;
12356;SDS011;6243;51.244;6.774;2024-01-16T13:11:54;8.77;;;3.83;;
12356;SDS011;6243;51.244;6.774;2024-01-16T13:14:20;10.37;;;3.83;;
12356;SDS011;6243;51.244;6.774;2024-01-16T13:16:46;5.53;;;3.67;;
12356;SDS011;6243;51.244;6.774;2024-01-16T13:19:12;5.93;;;3.83;;
12356;SDS011;6243;51.244;6.774;2024-01-16T13:21:40;8.00;;;4.10;;
12356;SDS011;6243;51.244;6.774;2024-01-16T13:24:06;10.77;;;4.10;;
12356;SDS011;6243;51.244;6.774;2024-01-16T13:26:32;8.33;;;3.90;;
12356;SDS011;6243;51.244;6.774;2024-01-16T13:28:59;5.43;;;3.93;;
12356;SDS011;6243;51.244;6.774;2024-01-16T13:31:25;9.20;;;3.83;;
12356;SDS011;6243;51.244;6.774;2024-01-16T13:33:51;9.53;;;3.67;;
12356;SDS011;6243;51.244;6.774;2024-01-16T13:36:16;7.80;;;4.00;;
12356;SDS011;6243;51.244;6.774;2024-01-16T13:38:42;6.63;;;3.77;;
12356;SDS011;6243;51.244;6.774;2024-01-16T13:41:07;7.80;;;3.77;;
12356;SDS011;6243;51.244;6.774;2024-01-16T13:43:33;11.37;;;4.50;;
12356;SDS011;6243;51.244;6.774;2024-01-16T13:46:00;11.37;;;4.07;;
12356;SDS011;6243;51.244;6.774;2024-01-16T13:48:26;9.53;;;4.37;;
12356;SDS011;6243;51.244;6.774;2024-01-16T13:50:51;7.60;;;4.03;;
12356;SDS011;6243;51.244;6.774;2024-01-16T13:53:17;7.83;;;4.50;;
12356;SDS011;6243;51.244;6.774;2024-01-16T13:55:43;9.23;;;3.93;;
12356;SDS011;6243;51.244;6.774;2024-01-16T13:58:08;9.80;;;3.70;;
12356;SDS011;6243;51.244;6.774;2024-01-16T14:00:34;8.33;;;4.07;;
12356;SDS011;6243;51.244;6.774;2024-01-16T14:03:01;5.63;;;3.20;;
12356;SDS011;6243;51.244;6.774;2024-01-16T14:05:26;6.97;;;4.03;;
12356;SDS011;6243;51.244;6.774;2024-01-16T14:07:52;9.93;;;4.00;;
12356;SDS011;6243;51.244;6.774;2024-01-16T14:10:18;7.80;;;4.17;;
12356;SDS011;6243;51.244;6.774;2024-01-16T14:12:45;8.80;;;4.00;;
12356;SDS011;6243;51.244;6.774;2024-01-16T14:15:12;7.47;;;3.83;;
12356;SDS011;6243;51.244;6.774;2024-01-16T14:17:38;7.20;;;3.93;;
12356;SDS011;6243;51.244;6.774;2024-01-16T14:20:06;7.53;;;3.80;;
12356;SDS011;6243;51.244;6.774;2024-01-16T14:22:32;9.17;;;3.77;;
12356;SDS011;6243;51.244;6.774;2024-01-16T14:24:57;5.53;;;3.47;;
12356;SDS011;6243;51.244;6.774;2024-01-16T14:27:23;7.00;;;3.70;;
12356;SDS011;6243;51.244;6.774;2024-01-16T14:29:48;7.77;;;3.40;;
12356;SDS011;6243;51.244;6.774;2024-01-16T14:32:14;6.37;;;3.40;;
12356;SDS011;6243;51.244;6.774;2024-01-16T14:34:40;5.87;;;3.60;;
12356;SDS011;6243;51.244;6.774;2024-01-16T14:37:07;3.67;;;2.97;;
12356;SDS011;6243;51.244;6.774;2024-01-16T14:39:33;6.90;;;3.43;;
12356;SDS011;6243;51.244;6.774;2024-01-16T14:41:58;6.93;;;3.67;;
12356;SDS011;6243;51.244;6.774;2024-01-16T14:44:24;4.27;;;3.17;;
12356;SDS011;6243;51.244;6.774;2024-01-16T14:46:49;8.83;;;4.00;;
12356;SDS011;6243;51.244;6.774;2024-01-16T14:49:15;6.23;;;3.83;;
12356;SDS011;6243;51.244;6.774;2024-01-16T14:51:40;6.57;;;3.70;;
12356;SDS011;6243;51.244;6.774;2024-01-16T14:54:07;6.77;;;3.93;;
12356;SDS011;6243;51.244;6.774;2024-01-16T14:56:33;8.57;;;3.47;;
12356;SDS011;6243;51.244;6.774;2024-01-16T14:58:58;8.17;;;4.07;;
12356;SDS011;6243;51.244;6.774;2024-01-16T15:01:24;5.80;;;3.57;;